Time;durP1;ratioP1;P1;durP2;ratioP2;P2;SDS_P1;SDS_P2;PMS_P1;PMS_P2;Temp;Humidity;BMP_temperature;BMP_pressure;BME280_temperature;BME280_humidity;BME280_pressure;Samples;Min_cycle;Max_cycle;Signal;HPM_P1;HPM_P2
2021/09/09 00:02:09;;;;;;;19.33;13.18;;;18.00;13.30;;;;;;5044652;28;20048;-69
2021/09/09 00:04:38;;;;;;;20.92;13.35;;;18.10;13.30;;;;;;5047346;28;20040;-70
2021/09/09 00:07:09;;;;;;;20.52;12.95;;;18.20;13.80;;;;;;5037704;28;20118;-70
2021/09/09 00:09:41;;;;;;;18.70;12.85;;;18.30;12.50;;;;;;5056029;28;20046;-70
2021/09/09 00:12:13;;;;;;;17.45;13.18;;;18.30;12.70;;;;;;5040194;28;20430;-70
2021/09/09 00:14:42;;;;;;;18.17;12.30;;;18.30;12.50;;;;;;5047414;28;20048;-71
2021/09/09 00:17:10;;;;;;;16.88;11.85;;;18.30;12.00;;;;;;5022119;28;20080;-71
2021/09/09 00:19:39;;;;;;;18.92;13.05;;;18.30;12.00;;;;;;5039962;28;20754;-71
2021/09/09 00:22:07;;;;;;;15.95;12.52;;;18.30;11.70;;;;;;5038487;28;20462;-70
2021/09/09 00:24:35;;;;;;;19.95;12.30;;;18.30;11.80;;;;;;5006054;28;20069;-70
2021/09/09 00:27:06;;;;;;;18.33;12.73;;;18.30;12.10;;;;;;5028497;28;20059;-69
2021/09/09 00:29:34;;;;;;;18.35;11.50;;;18.40;11.60;;;;;;5052991;28;20110;-70
2021/09/09 00:32:03;;;;;;;20.33;13.43;;;18.40;11.50;;;;;;5043360;28;20097;-70
2021/09/09 00:34:33;;;;;;;17.02;12.52;;;18.30;11.50;;;;;;5059045;28;20487;-70
2021/09/09 00:37:02;;;;;;;16.35;12.18;;;18.30;12.00;;;;;;5050306;28;21593;-70
2021/09/09 00:39:30;;;;;;;15.30;11.82;;;18.20;12.20;;;;;;5052515;28;20051;-70
2021/09/09 00:41:59;;;;;;;15.10;12.23;;;18.20;12.40;;;;;;5044676;28;20035;-71
2021/09/09 00:44:30;;;;;;;18.27;11.73;;;18.20;12.20;;;;;;5045960;28;20097;-69
2021/09/09 00:47:03;;;;;;;20.08;12.43;;;18.30;12.00;;;;;;5029461;28;20495;-69
2021/09/09 00:49:34;;;;;;;15.60;12.57;;;18.20;12.30;;;;;;5037817;28;20051;-70
2021/09/09 00:52:05;;;;;;;16.17;11.68;;;18.30;11.80;;;;;;5054005;28;20044;-70
2021/09/09 00:54:34;;;;;;;17.52;11.98;;;18.30;11.80;;;;;;5071621;28;20059;-70
2021/09/09 00:57:04;;;;;;;14.60;12.35;;;18.30;11.80;;;;;;5002945;28;20940;-70
2021/09/09 00:59:49;;;;;;;17.52;12.57;;;18.20;12.70;;;;;;5074757;28;20558;-71
2021/09/09 01:02:23;;;;;;;18.15;12.52;;;18.20;12.60;;;;;;5045022;28;20089;-70
2021/09/09 01:05:01;;;;;;;18.52;12.73;;;18.00;13.00;;;;;;5059320;28;20052;-71
2021/09/09 01:07:37;;;;;;;15.80;12.13;;;17.90;13.20;;;;;;5030951;28;20068;-71
2021/09/09 01:10:11;;;;;;;16.33;12.70;;;17.90;13.20;;;;;;5054620;28;20059;-71
2021/09/09 01:12:46;;;;;;;15.85;11.07;;;17.80;13.70;;;;;;5055757;28;20327;-71
2021/09/09 01:15:27;;;;;;;15.27;12.40;;;17.80;13.90;;;;;;5056685;28;20144;-71
2021/09/09 01:18:10;;;;;;;18.27;11.88;;;17.80;13.70;;;;;;5036008;28;20059;-70
2021/09/09 01:20:45;;;;;;;15.10;11.57;;;17.80;14.20;;;;;;5044119;28;20058;-71
2021/09/09 01:23:20;;;;;;;16.42;13.25;;;17.70;14.40;;;;;;5028542;28;20056;-70
2021/09/09 01:25:52;;;;;;;19.08;11.88;;;17.70;14.60;;;;;;5054994;28;20082;-70
2021/09/09 01:28:25;;;;;;;14.25;11.73;;;17.70;14.60;;;;;;5041299;28;20059;-70
2021/09/09 01:30:53;;;;;;;17.27;12.05;;;17.70;14.60;;;;;;5037708;28;20044;-70
2021/09/09 01:33:22;;;;;;;15.13;11.52;;;17.70;14.80;;;;;;5040191;28;20411;-70
2021/09/09 01:35:50;;;;;;;16.63;12.38;;;17.70;14.50;;;;;;5036850;28;20044;-70
2021/09/09 01:38:20;;;;;;;20.42;12.30;;;17.70;14.50;;;;;;5038683;28;20082;-70
2021/09/09 01:40:50;;;;;;;19.35;12.70;;;17.70;14.80;;;;;;5055540;28;20048;-69
2021/09/09 01:43:18;;;;;;;13.75;11.77;;;17.60;15.70;;;;;;5038011;28;20048;-71
2021/09/09 01:45:50;;;;;;;16.55;11.88;;;17.50;16.30;;;;;;5040095;28;20055;-70
2021/09/09 01:48:18;;;;;;;16.05;11.85;;;17.50;16.90;;;;;;5030716;28;20051;-71
2021/09/09 01:50:46;;;;;;;18.17;11.75;;;17.50;17.00;;;;;;5074059;28;20040;-70
2021/09/09 01:53:15;;;;;;;16.83;11.45;;;17.50;17.20;;;;;;5053706;28;20054;-71
2021/09/09 01:55:46;;;;;;;11.93;10.10;;;17.50;17.20;;;;;;5055850;28;20048;-71
2021/09/09 01:58:16;;;;;;;13.57;11.48;;;17.50;16.90;;;;;;5046356;28;20048;-71
2021/09/09 02:00:45;;;;;;;15.00;11.07;;;17.40;18.20;;;;;;5041386;28;20041;-70
2021/09/09 02:03:14;;;;;;;13.30;10.45;;;17.40;18.70;;;;;;5042310;28;20052;-70
2021/09/09 02:05:42;;;;;;;14.63;10.15;;;17.40;18.70;;;;;;5038249;28;20058;-71
2021/09/09 02:08:14;;;;;;;13.35;10.57;;;17.40;18.50;;;;;;5046679;28;20067;-71
2021/09/09 02:13:31;;;;;;;12.77;9.87;;;17.50;17.60;;;;;;5051480;28;20139;-71
2021/09/09 02:16:00;;;;;;;13.05;9.98;;;17.50;17.30;;;;;;5056650;28;20044;-70
2021/09/09 02:18:28;;;;;;;13.60;9.63;;;17.50;17.30;;;;;;5034612;28;20249;-70
2021/09/09 02:21:00;;;;;;;14.63;11.05;;;17.40;17.40;;;;;;5041564;28;20123;-70
2021/09/09 02:23:28;;;;;;;14.07;10.93;;;17.40;17.70;;;;;;5044647;28;20131;-71
2021/09/09 02:25:57;;;;;;;13.98;10.57;;;17.40;17.60;;;;;;5044347;28;20136;-71
2021/09/09 02:28:28;;;;;;;13.88;10.73;;;17.30;17.90;;;;;;5028900;28;20050;-71
2021/09/09 02:30:57;;;;;;;14.18;10.02;;;17.10;18.80;;;;;;5039031;28;20457;-70
2021/09/09 02:33:26;;;;;;;13.02;10.45;;;17.20;18.60;;;;;;5043603;28;20457;-70
2021/09/09 02:35:55;;;;;;;15.63;11.57;;;17.30;18.30;;;;;;5043593;28;20128;-70
2021/09/09 02:38:25;;;;;;;14.48;11.25;;;17.30;18.50;;;;;;5025235;28;20785;-70
2021/09/09 02:40:54;;;;;;;14.43;10.60;;;17.20;18.40;;;;;;5040289;28;21552;-71
2021/09/09 02:43:22;;;;;;;15.10;10.98;;;17.30;18.30;;;;;;5048258;28;20072;-71
2021/09/09 02:45:52;;;;;;;18.88;11.68;;;17.30;17.50;;;;;;5050702;28;20040;-71
2021/09/09 02:48:21;;;;;;;15.50;10.68;;;17.30;17.40;;;;;;5043206;28;20110;-71
2021/09/09 02:50:50;;;;;;;13.27;10.88;;;17.30;18.10;;;;;;5040695;28;20128;-71
2021/09/09 02:53:22;;;;;;;13.75;10.85;;;17.30;17.60;;;;;;5043447;28;20040;-70
2021/09/09 02:55:52;;;;;;;21.10;11.25;;;17.10;18.40;;;;;;5061357;28;20044;-70
2021/09/09 02:58:20;;;;;;;15.75;10.70;;;17.20;18.90;;;;;;5076995;28;20044;-70
2021/09/09 03:00:49;;;;;;;17.50;11.60;;;17.10;19.50;;;;;;5044372;28;20055;-70
2021/09/09 03:03:20;;;;;;;15.38;11.02;;;17.00;19.90;;;;;;5048400;28;20127;-71
2021/09/09 03:05:50;;;;;;;14.70;10.77;;;17.00;19.80;;;;;;5043227;28;20110;-71
2021/09/09 03:08:18;;;;;;;13.35;11.13;;;16.90;19.80;;;;;;5065248;28;20044;-71
2021/09/09 03:10:47;;;;;;;12.63;10.52;;;16.90;20.50;;;;;;5080771;28;20040;-71
2021/09/09 03:13:15;;;;;;;16.45;11.50;;;16.90;21.00;;;;;;5083045;28;20113;-71
2021/09/09 03:15:47;;;;;;;14.68;11.45;;;16.90;21.20;;;;;;5043451;28;20119;-70
2021/09/09 03:18:15;;;;;;;15.25;10.93;;;16.90;20.70;;;;;;5046896;28;20047;-71
2021/09/09 03:20:44;;;;;;;18.08;11.38;;;16.90;20.70;;;;;;5038525;28;20040;-69
2021/09/09 03:23:13;;;;;;;17.30;12.48;;;16.90;20.60;;;;;;5063867;28;20048;-69
2021/09/09 03:25:42;;;;;;;14.38;11.32;;;17.00;19.90;;;;;;5063232;28;20039;-71
2021/09/09 03:28:10;;;;;;;14.18;11.40;;;17.00;19.90;;;;;;5051124;28;20130;-69
2021/09/09 03:30:38;;;;;;;17.75;12.35;;;17.00;19.80;;;;;;5011985;28;20167;-71
2021/09/09 03:33:06;;;;;;;16.33;11.98;;;17.00;19.80;;;;;;5042433;28;20041;-70
2021/09/09 03:35:37;;;;;;;15.70;11.65;;;17.00;20.30;;;;;;5045375;28;20052;-70
2021/09/09 03:38:09;;;;;;;16.63;11.95;;;16.90;20.60;;;;;;5051543;28;20040;-70
2021/09/09 03:40:44;;;;;;;15.30;11.95;;;17.00;19.90;;;;;;5062053;28;20048;-71
2021/09/09 03:43:13;;;;;;;19.98;12.30;;;17.10;19.90;;;;;;5046294;28;20074;-70
2021/09/09 03:45:41;;;;;;;15.32;11.55;;;17.20;19.60;;;;;;5060941;28;20048;-69
2021/09/09 03:48:09;;;;;;;17.63;12.52;;;17.10;19.90;;;;;;5031218;28;20039;-70
2021/09/09 03:50:38;;;;;;;14.88;12.70;;;17.20;19.70;;;;;;5075259;28;20044;-70
2021/09/09 03:53:06;;;;;;;17.95;12.73;;;17.20;19.40;;;;;;5081832;28;20052;-70
2021/09/09 03:55:35;;;;;;;16.75;12.43;;;17.20;18.90;;;;;;5042697;28;20036;-71
2021/09/09 03:58:05;;;;;;;15.80;11.65;;;17.10;19.60;;;;;;5052412;28;20072;-71
2021/09/09 04:00:33;;;;;;;17.33;12.40;;;17.10;19.90;;;;;;5031190;28;20110;-70
2021/09/09 04:03:03;;;;;;;17.20;12.35;;;17.10;19.90;;;;;;5058927;28;20082;-70
2021/09/09 04:05:32;;;;;;;15.15;12.30;;;17.10;19.90;;;;;;5063561;28;20040;-70
2021/09/09 04:08:01;;;;;;;18.40;12.80;;;17.20;19.20;;;;;;5033352;28;20241;-70
2021/09/09 04:10:29;;;;;;;19.80;12.82;;;17.20;18.90;;;;;;5043043;28;20078;-69
2021/09/09 04:12:58;;;;;;;18.33;12.93;;;17.30;18.30;;;;;;5064540;28;20044;-70
2021/09/09 04:15:28;;;;;;;17.88;12.60;;;17.30;17.90;;;;;;5042925;28;20076;-71
2021/09/09 04:17:57;;;;;;;20.42;12.38;;;17.30;17.80;;;;;;5055641;28;20151;-70
2021/09/09 04:20:25;;;;;;;15.65;12.05;;;17.30;17.90;;;;;;5071610;28;20123;-69
2021/09/09 04:22:53;;;;;;;13.82;11.65;;;17.40;17.40;;;;;;5045721;28;20036;-69
2021/09/09 04:25:21;;;;;;;15.07;11.88;;;17.40;17.50;;;;;;5040267;28;20055;-71
2021/09/09 04:27:50;;;;;;;14.70;10.52;;;17.40;17.60;;;;;;5035897;28;20044;-68
2021/09/09 04:30:18;;;;;;;14.73;11.43;;;17.40;17.30;;;;;;5046571;28;20036;-70
2021/09/09 04:32:48;;;;;;;14.10;10.75;;;17.40;17.20;;;;;;5043145;28;20044;-70
2021/09/09 04:35:16;;;;;;;19.50;11.45;;;17.40;17.20;;;;;;5038300;28;20271;-71
2021/09/09 04:37:45;;;;;;;17.77;11.90;;;17.40;17.00;;;;;;5049687;28;20412;-71
2021/09/09 04:40:14;;;;;;;14.57;11.13;;;17.40;16.80;;;;;;5046368;28;20142;-70
2021/09/09 04:42:43;;;;;;;16.15;10.80;;;17.30;17.00;;;;;;5045798;28;20041;-70
2021/09/09 04:45:12;;;;;;;18.38;10.98;;;17.40;17.10;;;;;;5048210;28;20117;-70
2021/09/09 04:47:40;;;;;;;16.92;12.45;;;17.40;16.60;;;;;;5035261;28;20059;-70
2021/09/09 04:50:11;;;;;;;14.88;11.23;;;17.40;16.50;;;;;;5076366;28;20070;-70
2021/09/09 04:52:43;;;;;;;16.20;11.35;;;17.40;16.60;;;;;;5054810;28;20040;-71
2021/09/09 04:55:17;;;;;;;17.77;11.68;;;17.40;16.50;;;;;;5056334;28;20060;-68
2021/09/09 04:57:45;;;;;;;17.25;11.70;;;17.40;16.50;;;;;;5046336;28;20057;-69
2021/09/09 05:00:13;;;;;;;14.88;12.20;;;17.40;16.90;;;;;;5057582;28;20127;-70
2021/09/09 05:02:42;;;;;;;15.52;11.20;;;17.30;16.50;;;;;;5048374;28;20044;-70
2021/09/09 05:05:12;;;;;;;15.20;11.57;;;17.30;17.00;;;;;;5045411;28;20094;-70
2021/09/09 05:07:41;;;;;;;16.17;12.10;;;17.30;17.00;;;;;;5032427;28;20795;-70
2021/09/09 05:10:11;;;;;;;17.38;11.38;;;17.20;17.80;;;;;;5043138;28;20907;-70
2021/09/09 05:12:40;;;;;;;15.30;11.48;;;17.30;17.20;;;;;;5038755;28;20567;-70
2021/09/09 05:15:10;;;;;;;13.93;11.02;;;17.30;16.80;;;;;;5055316;28;20040;-70
2021/09/09 05:17:41;;;;;;;14.88;11.25;;;17.50;16.20;;;;;;5042860;28;20053;-70
2021/09/09 05:20:10;;;;;;;15.82;11.30;;;18.00;12.60;;;;;;5048004;28;20052;-70
2021/09/09 05:22:41;;;;;;;14.35;10.63;;;18.30;9.90;;;;;;5043295;28;20044;-70
2021/09/09 05:25:13;;;;;;;13.15;10.93;;;18.60;7.70;;;;;;5060404;28;20059;-70
2021/09/09 05:27:41;;;;;;;16.38;11.68;;;18.60;8.10;;;;;;5033147;28;20423;-70
2021/09/09 05:30:11;;;;;;;16.33;11.75;;;18.50;9.10;;;;;;5044103;28;20067;-70
2021/09/09 05:32:40;;;;;;;15.48;10.80;;;18.00;11.10;;;;;;5045664;28;20075;-70
2021/09/09 05:35:09;;;;;;;19.15;12.13;;;17.90;12.70;;;;;;5039963;28;20540;-70
2021/09/09 05:37:39;;;;;;;17.85;11.30;;;17.90;12.50;;;;;;5029921;28;20058;-70
2021/09/09 05:40:09;;;;;;;20.40;10.73;;;17.90;12.80;;;;;;5071148;28;20059;-70
2021/09/09 05:42:38;;;;;;;15.82;11.27;;;18.00;13.20;;;;;;5048264;28;20094;-70
2021/09/09 05:45:08;;;;;;;16.77;10.98;;;18.00;12.50;;;;;;5042781;28;20533;-70
2021/09/09 05:47:36;;;;;;;17.92;11.93;;;18.00;12.20;;;;;;5047675;28;20056;-70
2021/09/09 05:50:06;;;;;;;23.08;12.02;;;18.00;12.20;;;;;;5042927;28;20056;-70
2021/09/09 05:52:35;;;;;;;21.08;11.90;;;18.00;12.20;;;;;;5062863;28;20085;-70
2021/09/09 05:55:05;;;;;;;20.63;11.35;;;18.00;11.70;;;;;;5039483;28;20071;-70
2021/09/09 05:57:33;;;;;;;15.07;11.40;;;18.10;11.50;;;;;;5048237;28;20146;-70
2021/09/09 06:00:02;;;;;;;16.42;10.55;;;18.30;11.30;;;;;;5058199;28;20506;-69
2021/09/09 06:02:31;;;;;;;16.50;10.43;;;18.60;10.00;;;;;;5035086;28;20040;-70
2021/09/09 06:05:00;;;;;;;16.63;10.77;;;18.70;9.60;;;;;;5044518;28;20123;-69
2021/09/09 06:07:28;;;;;;;17.00;10.77;;;18.70;8.60;;;;;;5035735;28;20052;-69
2021/09/09 06:09:57;;;;;;;19.58;10.32;;;18.80;8.50;;;;;;5042031;28;20058;-69
2021/09/09 06:12:27;;;;;;;20.48;11.45;;;18.70;8.20;;;;;;5031300;28;20047;-70
2021/09/09 06:14:57;;;;;;;15.30;11.18;;;18.80;8.10;;;;;;5043078;28;20052;-70
2021/09/09 06:17:26;;;;;;;18.88;10.60;;;18.80;7.40;;;;;;5028587;28;20081;-70
2021/09/09 06:19:55;;;;;;;15.50;11.13;;;18.70;7.60;;;;;;5034402;28;20056;-69
2021/09/09 06:22:24;;;;;;;18.65;11.25;;;18.80;7.80;;;;;;5036428;28;20530;-70
2021/09/09 06:24:52;;;;;;;14.38;10.60;;;18.80;7.20;;;;;;5048953;28;20127;-71
2021/09/09 06:27:20;;;;;;;16.95;10.65;;;18.80;7.30;;;;;;5030209;28;20835;-69
2021/09/09 06:29:50;;;;;;;16.77;11.05;;;18.90;6.70;;;;;;5033414;28;20514;-70
2021/09/09 06:32:18;;;;;;;16.67;10.77;;;19.20;6.60;;;;;;5076005;28;20044;-69
2021/09/09 06:34:46;;;;;;;24.88;11.07;;;19.40;5.60;;;;;;5073875;28;20048;-70
2021/09/09 06:37:14;;;;;;;17.45;10.13;;;19.50;4.20;;;;;;5061324;28;20056;-70
2021/09/09 06:39:42;;;;;;;16.05;9.57;;;19.60;3.80;;;;;;5069207;28;20052;-71
2021/09/09 06:42:10;;;;;;;21.52;10.25;;;19.70;3.80;;;;;;5069836;28;20101;-71
2021/09/09 06:44:39;;;;;;;16.85;10.00;;;19.90;3.30;;;;;;5053297;28;20060;-71
2021/09/09 06:47:08;;;;;;;15.45;10.10;;;20.00;2.80;;;;;;5065901;28;20057;-70
2021/09/09 06:49:36;;;;;;;15.75;10.43;;;20.10;1.80;;;;;;5067046;28;20051;-70
2021/09/09 06:52:05;;;;;;;13.20;9.88;;;20.10;1.50;;;;;;5068004;28;20056;-70
2021/09/09 06:54:33;;;;;;;14.80;10.20;;;20.20;1.80;;;;;;5076522;28;20105;-70
2021/09/09 06:57:01;;;;;;;15.45;10.40;;;20.40;1.00;;;;;;5064210;28;21255;-71
2021/09/09 06:59:29;;;;;;;15.85;9.60;;;20.40;1.00;;;;;;5067537;28;20044;-69
2021/09/09 07:01:57;;;;;;;17.25;9.95;;;20.50;1.00;;;;;;5071107;28;20101;-70
2021/09/09 07:04:27;;;;;;;12.30;9.23;;;20.30;1.00;;;;;;5070100;28;20048;-70
2021/09/09 07:06:55;;;;;;;13.35;9.90;;;20.40;1.00;;;;;;5067010;28;20048;-71
2021/09/09 07:09:23;;;;;;;14.52;9.88;;;20.50;1.00;;;;;;5063910;28;20045;-70
2021/09/09 07:11:52;;;;;;;21.05;10.15;;;20.70;1.00;;;;;;5070595;28;20140;-71
2021/09/09 07:14:20;;;;;;;16.10;9.13;;;20.90;1.00;;;;;;5053020;28;20043;-70
2021/09/09 07:16:49;;;;;;;15.00;9.98;;;21.10;1.00;;;;;;5064777;28;20546;-71
2021/09/09 07:19:17;;;;;;;16.33;8.90;;;21.30;1.00;;;;;;5051124;28;20530;-70
2021/09/09 07:21:50;;;;;;;12.15;9.25;;;21.30;1.00;;;;;;5072112;28;20118;-70
2021/09/09 07:24:18;;;;;;;16.40;9.57;;;21.50;1.00;;;;;;5075614;28;20468;-71
2021/09/09 07:26:47;;;;;;;14.20;9.25;;;21.50;1.00;;;;;;5051681;28;20048;-70
2021/09/09 07:29:15;;;;;;;15.48;9.68;;;21.60;1.00;;;;;;5062688;28;20053;-71
2021/09/09 07:31:44;;;;;;;18.13;11.20;;;21.60;1.00;;;;;;5073580;28;20080;-71
2021/09/09 07:34:17;;;;;;;15.85;9.15;;;21.80;1.00;;;;;;5080064;28;20072;-69
2021/09/09 07:36:46;;;;;;;12.32;8.90;;;21.90;1.00;;;;;;5081740;28;20044;-70
2021/09/09 07:39:14;;;;;;;13.38;9.07;;;21.90;1.00;;;;;;5064292;28;20050;-68
2021/09/09 07:41:42;;;;;;;11.98;8.30;;;21.90;1.00;;;;;;5080754;28;20121;-67
2021/09/09 07:44:10;;;;;;;17.15;9.63;;;22.10;1.00;;;;;;5081373;28;20521;-67
2021/09/09 07:46:38;;;;;;;13.75;9.10;;;22.10;1.00;;;;;;5079342;28;20071;-67
2021/09/09 07:49:08;;;;;;;15.95;9.05;;;22.10;1.00;;;;;;5083868;28;20882;-67
2021/09/09 07:51:37;;;;;;;13.75;8.82;;;22.00;1.00;;;;;;5077203;28;20506;-67
2021/09/09 07:54:07;;;;;;;12.32;8.70;;;22.30;1.00;;;;;;5078275;28;20097;-66
2021/09/09 07:56:34;;;;;;;11.55;8.90;;;22.30;1.00;;;;;;5082519;28;20048;-68
2021/09/09 07:59:03;;;;;;;12.23;8.25;;;22.60;1.00;;;;;;5064896;28;20063;-68
2021/09/09 08:01:30;;;;;;;14.27;8.70;;;22.70;1.00;;;;;;5063667;28;20112;-66
2021/09/09 08:04:00;;;;;;;18.10;8.95;;;22.90;1.00;;;;;;5078860;28;20403;-66
2021/09/09 08:06:29;;;;;;;12.30;8.55;;;23.00;1.00;;;;;;5079155;28;20054;-67
2021/09/09 08:08:57;;;;;;;14.45;8.80;;;23.10;1.00;;;;;;5078186;28;20642;-67
2021/09/09 08:11:27;;;;;;;11.82;8.35;;;23.00;1.00;;;;;;5079039;28;20113;-67
2021/09/09 08:13:55;;;;;;;13.93;8.88;;;23.00;1.00;;;;;;5081342;28;20060;-67
2021/09/09 08:16:23;;;;;;;13.93;7.88;;;23.10;1.00;;;;;;5080159;28;20060;-67
2021/09/09 08:18:52;;;;;;;14.82;7.95;;;23.50;1.00;;;;;;5081391;28;20044;-67
2021/09/09 08:21:20;;;;;;;10.88;7.45;;;23.40;1.00;;;;;;5083365;28;20261;-67
2021/09/09 08:23:47;;;;;;;13.25;8.55;;;23.50;1.00;;;;;;5079845;28;20482;-67
2021/09/09 08:26:16;;;;;;;13.90;8.20;;;23.50;1.00;;;;;;5079237;28;20051;-67
2021/09/09 08:28:45;;;;;;;9.43;7.85;;;24.00;1.00;;;;;;5073600;28;20060;-67
2021/09/09 08:31:13;;;;;;;16.52;8.75;;;24.20;1.00;;;;;;5080154;28;20056;-67
2021/09/09 08:33:42;;;;;;;16.25;8.20;;;24.10;1.00;;;;;;5078657;28;20093;-67
2021/09/09 08:36:12;;;;;;;19.88;11.68;;;24.50;1.00;;;;;;5081133;28;20502;-67
2021/09/09 08:38:40;;;;;;;9.57;7.47;;;24.30;1.00;;;;;;5078953;28;20071;-67
2021/09/09 08:41:08;;;;;;;16.08;6.97;;;24.50;1.00;;;;;;5082158;28;20055;-67
2021/09/09 08:43:36;;;;;;;8.95;6.13;;;24.80;1.00;;;;;;5075762;28;20058;-66
2021/09/09 08:46:05;;;;;;;9.30;5.20;;;24.70;1.00;;;;;;5074765;28;20041;-67
2021/09/09 08:48:34;;;;;;;7.95;6.10;;;24.90;1.00;;;;;;5082582;28;20130;-67
2021/09/09 08:51:02;;;;;;;8.45;5.82;;;24.70;1.00;;;;;;5081128;28;20048;-67
2021/09/09 08:53:31;;;;;;;9.13;5.85;;;24.80;1.00;;;;;;5079905;28;20100;-67
2021/09/09 08:55:58;;;;;;;10.27;5.55;;;25.00;1.00;;;;;;5079545;28;20315;-67
2021/09/09 08:58:27;;;;;;;10.27;5.45;;;25.30;1.00;;;;;;5080825;28;20048;-66
2021/09/09 09:01:07;;;;;;;9.50;5.70;;;25.30;1.00;;;;;;5079479;28;20048;-66
2021/09/09 09:03:47;;;;;;;9.60;5.63;;;25.20;1.00;;;;;;5080005;28;20051;-66
2021/09/09 09:06:36;;;;;;;6.45;5.45;;;25.30;1.00;;;;;;5060893;28;20040;-66
2021/09/09 09:09:08;;;;;;;8.35;5.57;;;25.10;1.00;;;;;;5074963;28;20044;-67
2021/09/09 09:11:39;;;;;;;8.48;5.55;;;25.30;1.00;;;;;;5079390;28;20055;-67
2021/09/09 09:14:08;;;;;;;8.73;5.57;;;25.20;1.00;;;;;;5077939;28;20062;-67
2021/09/09 09:16:43;;;;;;;10.80;5.72;;;25.50;1.00;;;;;;5077932;28;20173;-66
2021/09/09 09:19:13;;;;;;;13.02;5.97;;;25.80;1.00;;;;;;5079292;28;20412;-66
2021/09/09 09:21:43;;;;;;;5.80;5.15;;;25.90;1.00;;;;;;5076281;28;20048;-67
2021/09/09 09:24:15;;;;;;;8.73;5.20;;;25.40;1.00;;;;;;5060967;28;20056;-67
2021/09/09 09:27:04;;;;;;;8.57;5.68;;;25.70;1.00;;;;;;5078686;28;20052;-67
2021/09/09 09:29:33;;;;;;;11.68;5.85;;;25.70;1.00;;;;;;5077208;28;20071;-67
2021/09/09 09:32:18;;;;;;;7.93;5.57;;;25.80;1.00;;;;;;5078540;28;20052;-67
2021/09/09 09:34:47;;;;;;;11.88;5.63;;;25.70;1.00;;;;;;5078909;28;20129;-67
2021/09/09 09:37:20;;;;;;;5.72;4.90;;;25.80;1.00;;;;;;5076754;28;20076;-67
2021/09/09 09:39:49;;;;;;;11.88;5.90;;;25.90;1.00;;;;;;5079985;28;20044;-68
2021/09/09 09:42:17;;;;;;;8.38;4.57;;;25.40;1.00;;;;;;5075061;28;20789;-67
2021/09/09 09:44:47;;;;;;;6.45;4.65;;;25.10;1.00;;;;;;5074581;28;20306;-67
2021/09/09 09:47:19;;;;;;;8.35;5.18;;;25.70;1.00;;;;;;5079547;28;20080;-66
2021/09/09 09:49:50;;;;;;;10.88;6.20;;;25.90;1.00;;;;;;5078679;28;20072;-67
2021/09/09 09:52:24;;;;;;;8.68;5.80;;;26.10;1.00;;;;;;5058194;28;20519;-66
2021/09/09 09:54:52;;;;;;;;;;;26.00;1.00;;;;;;5050317;28;20056;-68
2021/09/09 09:57:21;;;;;;;7.60;5.75;;;25.50;1.00;;;;;;5074758;28;19943;-67
2021/09/09 09:59:50;;;;;;;11.20;5.93;;;25.40;1.00;;;;;;5058101;28;20467;-67
2021/09/09 10:02:19;;;;;;;7.55;5.68;;;25.50;1.00;;;;;;5059287;28;20054;-66
2021/09/09 10:04:49;;;;;;;9.18;5.32;;;25.40;1.00;;;;;;5058579;28;20443;-67
2021/09/09 10:07:18;;;;;;;8.48;6.03;;;25.60;1.00;;;;;;5054441;28;20073;-67
2021/09/09 10:09:47;;;;;;;8.10;5.60;;;26.10;1.00;;;;;;5060722;28;20049;-67
2021/09/09 10:12:15;;;;;;;8.77;5.93;;;26.30;1.00;;;;;;5070652;28;20132;-69
2021/09/09 10:14:47;;;;;;;6.93;5.35;;;26.30;1.00;;;;;;5058010;28;21745;-67
2021/09/09 10:17:19;;;;;;;7.18;5.63;;;26.20;1.00;;;;;;5053425;28;20049;-68
2021/09/09 10:19:49;;;;;;;7.32;5.38;;;26.10;1.00;;;;;;5059565;28;20462;-67
2021/09/09 10:22:18;;;;;;;8.35;5.53;;;26.00;1.00;;;;;;5060002;28;20474;-67
2021/09/09 10:24:47;;;;;;;10.30;5.53;;;26.00;1.00;;;;;;5056185;28;20068;-67
2021/09/09 10:27:25;;;;;;;6.72;5.78;;;26.00;1.00;;;;;;5058989;28;20150;-67
2021/09/09 10:29:59;;;;;;;7.45;5.50;;;26.00;1.00;;;;;;5061410;28;20068;-67
2021/09/09 10:32:47;;;;;;;;;;;26.10;1.00;;;;;;5054900;28;20049;-68
2021/09/09 10:35:30;;;;;;;8.80;5.50;;;26.00;1.00;;;;;;5034940;28;20275;-67
2021/09/09 10:38:19;;;;;;;7.05;5.50;;;26.00;1.00;;;;;;5058333;28;20076;-67
2021/09/09 10:40:52;;;;;;;6.80;5.47;;;26.20;1.00;;;;;;5056202;28;20419;-67
2021/09/09 10:43:45;;;;;;;7.53;5.03;;;26.70;1.00;;;;;;5050572;28;20053;-67
2021/09/09 10:46:13;;;;;;;6.22;5.40;;;26.40;1.00;;;;;;5057962;28;20055;-66
2021/09/09 10:48:43;;;;;;;9.00;5.97;;;26.20;1.00;;;;;;5059937;28;20049;-67
2021/09/09 10:51:17;;;;;;;7.72;5.88;;;26.30;1.00;;;;;;5073341;28;20048;-68
2021/09/09 10:53:52;;;;;;;8.23;5.55;;;26.30;1.00;;;;;;5049688;28;20044;-67
2021/09/09 10:56:23;;;;;;;7.35;5.40;;;26.70;1.00;;;;;;5057598;28;20064;-69
2021/09/09 10:59:18;;;;;;;7.97;5.63;;;26.80;1.00;;;;;;5058215;28;20056;-67
2021/09/09 11:01:48;;;;;;;9.00;6.10;;;26.60;1.00;;;;;;5057724;28;20045;-67
2021/09/09 11:04:29;;;;;;;9.63;5.90;;;26.90;1.00;;;;;;5053969;28;20049;-67
2021/09/09 11:06:58;;;;;;;7.95;5.55;;;26.80;1.00;;;;;;5053738;28;20045;-67
2021/09/09 11:09:27;;;;;;;8.10;5.93;;;27.10;1.00;;;;;;5055537;28;20056;-68
2021/09/09 11:12:02;;;;;;;10.52;6.28;;;27.00;1.00;;;;;;5058577;28;20123;-67
2021/09/09 11:14:31;;;;;;;6.82;5.80;;;26.70;1.00;;;;;;5058349;28;20063;-66
2021/09/09 11:16:59;;;;;;;7.97;5.45;;;26.80;1.00;;;;;;5058159;28;20048;-67
2021/09/09 11:19:28;;;;;;;7.20;5.57;;;27.10;1.00;;;;;;5079549;28;20105;-67
2021/09/09 11:22:00;;;;;;;7.68;5.28;;;27.00;1.00;;;;;;5057751;28;20048;-68
2021/09/09 11:24:34;;;;;;;10.30;5.68;;;26.90;1.00;;;;;;5079810;28;20077;-67
2021/09/09 11:27:13;;;;;;;6.50;5.85;;;27.10;1.00;;;;;;5079692;28;20040;-66
2021/09/09 11:29:42;;;;;;;7.40;5.88;;;27.20;1.00;;;;;;5075788;28;20079;-69
2021/09/09 11:32:14;;;;;;;10.32;5.35;;;27.10;1.00;;;;;;5064308;28;20052;-66
2021/09/09 11:34:42;;;;;;;7.20;5.30;;;27.30;1.00;;;;;;5066615;28;20121;-66
2021/09/09 11:37:10;;;;;;;9.40;5.30;;;27.10;1.00;;;;;;5064154;28;20040;-68
2021/09/09 11:39:38;;;;;;;7.80;5.78;;;27.30;1.00;;;;;;5078681;28;20851;-67
2021/09/09 11:42:14;;;;;;;7.95;5.82;;;27.00;1.00;;;;;;5082959;28;20066;-66
2021/09/09 11:44:43;;;;;;;8.88;5.90;;;27.40;1.00;;;;;;5077390;28;20144;-67
2021/09/09 11:47:12;;;;;;;7.28;5.80;;;27.40;1.00;;;;;;5069334;28;20045;-66
2021/09/09 11:49:41;;;;;;;6.30;5.28;;;27.50;1.00;;;;;;5063000;28;20054;-67
2021/09/09 11:52:10;;;;;;;7.15;4.65;;;27.30;1.00;;;;;;5073898;28;20527;-67
2021/09/09 11:54:40;;;;;;;6.80;5.28;;;26.60;1.00;;;;;;5077941;28;20572;-68
2021/09/09 11:57:12;;;;;;;9.40;5.68;;;26.90;1.00;;;;;;5080677;28;20054;-67
2021/09/09 11:59:50;;;;;;;8.82;5.68;;;26.80;1.00;;;;;;5062275;28;20131;-68
2021/09/09 12:02:22;;;;;;;8.32;5.72;;;27.00;1.00;;;;;;5078580;28;20198;-67
2021/09/09 12:04:52;;;;;;;5.90;5.18;;;26.90;1.00;;;;;;5063617;28;20098;-67
2021/09/09 12:07:22;;;;;;;6.47;5.43;;;26.70;1.00;;;;;;5063597;28;20187;-67
2021/09/09 12:09:56;;;;;;;7.10;5.20;;;26.80;1.00;;;;;;5082349;28;20040;-67
2021/09/09 12:12:27;;;;;;;7.70;4.97;;;26.70;1.00;;;;;;5080965;28;20040;-67
2021/09/09 12:15:02;;;;;;;5.80;5.05;;;26.80;1.00;;;;;;5077160;28;20105;-67
2021/09/09 12:17:32;;;;;;;6.82;5.07;;;27.00;1.00;;;;;;5081082;28;20072;-68
2021/09/09 12:20:03;;;;;;;7.22;5.05;;;27.00;1.00;;;;;;5078777;28;20208;-69
2021/09/09 12:22:58;;;;;;;10.07;5.57;;;27.10;1.00;;;;;;5079954;28;20048;-68
2021/09/09 12:25:32;;;;;;;8.48;5.35;;;26.80;1.00;;;;;;5026009;28;20567;-67
2021/09/09 12:28:11;;;;;;;9.32;4.75;;;26.60;1.00;;;;;;5082191;28;20097;-66
2021/09/09 12:30:47;;;;;;;5.57;3.78;;;26.80;1.00;;;;;;5083965;28;20508;-68
2021/09/09 12:33:20;;;;;;;9.32;4.78;;;26.60;1.00;;;;;;5078520;28;20109;-68
2021/09/09 12:36:07;;;;;;;5.30;4.10;;;26.70;1.00;;;;;;5057275;28;20044;-68
2021/09/09 12:38:38;;;;;;;7.60;4.75;;;26.80;1.00;;;;;;5079616;28;20162;-68
2021/09/09 12:41:06;;;;;;;8.32;4.50;;;26.80;1.00;;;;;;5082722;28;20056;-67
2021/09/09 12:43:38;;;;;;;6.63;4.50;;;26.40;1.00;;;;;;5077802;28;20234;-67
2021/09/09 12:46:07;;;;;;;5.05;3.90;;;26.40;1.00;;;;;;5072808;28;20052;-67
2021/09/09 12:48:35;;;;;;;8.88;4.13;;;26.30;1.00;;;;;;5078507;28;20063;-67
2021/09/09 12:51:06;;;;;;;6.00;4.05;;;26.50;1.00;;;;;;5078290;28;20048;-67
2021/09/09 12:53:37;;;;;;;4.93;3.50;;;26.10;1.00;;;;;;5078117;28;20043;-67
2021/09/09 12:56:07;;;;;;;6.57;3.60;;;26.10;1.00;;;;;;5080544;28;20487;-67
2021/09/09 12:58:36;;;;;;;5.40;3.00;;;26.00;1.00;;;;;;5081918;28;20044;-67
2021/09/09 13:01:05;;;;;;;5.75;2.90;;;26.00;1.00;;;;;;5075835;28;20369;-67